Aviation Digital Data Service (ADDS)

Output produced by TAFs form (2152 UTC 16 April 2014)
found at http://aviationweather.gov/adds/tafs/
 
KSAF 161736Z 1618/1718 25015KT P6SM SCT250 
     FM162000 26015G22KT P6SM BKN250 
     FM170000 32019G29KT P6SM BKN100 
     FM170200 36012KT P6SM SCT110 
     FM170600 15010KT P6SM SKC